createdAt,value
2022-08-24T00:01:56.848Z,80.64
2022-08-24T00:04:24.885Z,80.80
2022-08-24T00:06:53.024Z,81.38
2022-08-24T00:09:21.234Z,81.39
2022-08-24T00:11:49.110Z,81.81
2022-08-24T00:14:18.698Z,82.39
2022-08-24T00:16:47.911Z,82.47
2022-08-24T00:19:16.318Z,82.58
2022-08-24T00:21:45.241Z,82.97
2022-08-24T00:24:14.664Z,83.19
2022-08-24T00:26:42.618Z,83.51
2022-08-24T00:29:11.011Z,83.83
2022-08-24T00:31:40.695Z,84.22
2022-08-24T00:34:08.678Z,84.49
2022-08-24T00:36:37.003Z,84.49
2022-08-24T00:39:05.605Z,84.99
2022-08-24T00:41:33.887Z,85.19
2022-08-24T00:44:06.376Z,85.73
2022-08-24T00:46:43.681Z,85.92
2022-08-24T00:49:19.832Z,86.01
2022-08-24T00:51:55.810Z,86.29
2022-08-24T00:54:27.037Z,86.38
2022-08-24T00:57:00.138Z,86.70
2022-08-24T00:59:32.706Z,86.81
2022-08-24T01:02:09.005Z,86.93
2022-08-24T01:04:50.889Z,87.15
2022-08-24T01:07:22.806Z,87.33
2022-08-24T01:09:51.386Z,87.68
2022-08-24T01:12:19.382Z,87.64
2022-08-24T01:14:47.905Z,88.02
2022-08-24T01:17:39.197Z,88.01
2022-08-24T01:20:10.946Z,88.20
2022-08-24T01:22:54.762Z,88.75
2022-08-24T01:25:26.536Z,88.79
2022-08-24T01:27:57.778Z,89.04
2022-08-24T01:30:30.732Z,89.28
2022-08-24T01:33:07.925Z,89.28
2022-08-24T01:35:37.962Z,89.39
2022-08-24T01:38:10.431Z,89.79
2022-08-24T01:40:44.018Z,89.99
2022-08-24T01:43:13.048Z,90.09
2022-08-24T01:45:41.499Z,90.08
2022-08-24T01:48:09.473Z,90.29
2022-08-24T01:50:37.557Z,90.42
2022-08-24T01:53:06.830Z,90.53
2022-08-24T01:55:35.612Z,90.74
2022-08-24T01:58:06.602Z,90.91
2022-08-24T02:00:36.715Z,90.78
2022-08-24T02:03:05.005Z,91.34
2022-08-24T02:05:33.561Z,91.21
2022-08-24T02:08:01.604Z,91.35
2022-08-24T02:10:30.494Z,91.39
2022-08-24T02:12:59.505Z,91.60
2022-08-24T02:15:32.835Z,91.83
2022-08-24T02:18:02.117Z,91.80
2022-08-24T02:20:30.482Z,91.99
2022-08-24T02:22:59.043Z,91.97
2022-08-24T02:25:30.570Z,91.90
2022-08-24T02:27:59.612Z,92.21
2022-08-24T02:30:29.769Z,92.16
2022-08-24T02:32:59.253Z,92.35
2022-08-24T02:35:27.914Z,92.18
2022-08-24T02:37:55.906Z,92.40
2022-08-24T02:40:24.608Z,92.26
2022-08-24T02:42:52.750Z,92.34
2022-08-24T02:45:20.989Z,92.16
2022-08-24T02:47:52.441Z,92.57
2022-08-24T02:50:27.774Z,92.57
2022-08-24T02:52:56.056Z,92.70
2022-08-24T02:55:24.980Z,92.62
2022-08-24T02:57:53.064Z,92.47
2022-08-24T03:00:23.030Z,92.53
2022-08-24T03:02:51.628Z,92.25
2022-08-24T03:05:19.968Z,92.21
2022-08-24T03:07:49.701Z,92.06
2022-08-24T03:10:20.802Z,91.81
2022-08-24T03:12:50.407Z,91.69
2022-08-24T03:15:22.483Z,92.01
2022-08-24T03:17:51.364Z,91.59
2022-08-24T03:20:22.282Z,91.77
2022-08-24T03:22:52.001Z,91.63
2022-08-24T03:25:21.860Z,91.57
2022-08-24T03:27:49.849Z,91.56
2022-08-24T03:30:18.801Z,91.70
2022-08-24T03:32:47.580Z,91.68
2022-08-24T03:35:16.610Z,91.58
2022-08-24T03:37:44.778Z,91.53
2022-08-24T03:40:24.516Z,91.70
2022-08-24T03:42:53.690Z,91.84
2022-08-24T03:45:22.945Z,91.76
2022-08-24T03:47:51.906Z,91.64
2022-08-24T03:50:20.870Z,91.88
2022-08-24T03:52:49.715Z,91.86
2022-08-24T03:55:19.416Z,91.58
2022-08-24T03:57:47.394Z,91.90
2022-08-24T04:00:15.876Z,91.73
2022-08-24T04:02:44.571Z,91.81
2022-08-24T04:05:13.467Z,92.08
2022-08-24T04:07:41.380Z,91.97
2022-08-24T04:10:11.560Z,92.04
2022-08-24T04:12:41.040Z,91.76
2022-08-24T04:15:10.149Z,92.12
2022-08-24T04:17:38.054Z,92.00
2022-08-24T04:20:07.519Z,92.10
2022-08-24T04:22:35.550Z,92.09
2022-08-24T04:25:08.983Z,92.16
2022-08-24T04:27:37.883Z,92.67
2022-08-24T04:30:08.641Z,92.62
2022-08-24T04:32:36.692Z,92.80
2022-08-24T04:35:06.285Z,92.74
2022-08-24T04:37:34.324Z,92.74
2022-08-24T04:40:03.335Z,93.04
2022-08-24T04:42:33.421Z,93.00
2022-08-24T04:45:01.744Z,92.87
2022-08-24T04:47:31.015Z,93.09
2022-08-24T04:49:58.970Z,93.13
2022-08-24T04:52:27.410Z,93.00
2022-08-24T04:54:55.292Z,92.91
2022-08-24T04:57:23.292Z,92.90
2022-08-24T04:59:51.298Z,92.85
2022-08-24T05:02:20.987Z,92.40
2022-08-24T05:04:50.441Z,92.22
2022-08-24T05:07:20.021Z,91.62
2022-08-24T05:09:47.941Z,91.22
2022-08-24T05:12:21.274Z,90.82
2022-08-24T05:14:49.132Z,90.55
2022-08-24T05:17:17.030Z,89.98
2022-08-24T05:19:45.186Z,89.50
2022-08-24T05:22:14.512Z,89.18
2022-08-24T05:24:43.098Z,88.60
2022-08-24T05:27:11.296Z,88.04
2022-08-24T05:29:42.223Z,87.34
2022-08-24T05:32:10.104Z,86.90
2022-08-24T05:34:38.307Z,86.33
2022-08-24T05:37:06.251Z,85.95
2022-08-24T05:39:35.590Z,85.03
2022-08-24T05:42:03.874Z,84.83
2022-08-24T05:44:32.057Z,84.40
2022-08-24T05:47:01.353Z,83.87
2022-08-24T05:49:29.678Z,83.53
2022-08-24T05:51:57.803Z,83.25
2022-08-24T05:54:25.886Z,82.56
2022-08-24T05:56:57.482Z,81.91
2022-08-24T05:59:25.489Z,81.21
2022-08-24T06:01:53.614Z,80.48
2022-08-24T06:04:22.072Z,80.12
2022-08-24T06:06:52.341Z,79.43
2022-08-24T06:09:20.248Z,78.72
2022-08-24T06:11:48.945Z,78.40
2022-08-24T06:14:23.862Z,77.89
2022-08-24T06:16:54.662Z,77.92
2022-08-24T06:19:22.986Z,77.52
2022-08-24T06:21:53.629Z,77.08
2022-08-24T06:24:45.068Z,76.88
2022-08-24T06:27:21.725Z,76.62
2022-08-24T06:29:52.676Z,75.93
2022-08-24T06:32:20.910Z,75.52
2022-08-24T06:34:48.814Z,74.86
2022-08-24T06:37:17.739Z,74.43
2022-08-24T06:39:46.789Z,73.79
2022-08-24T06:42:14.740Z,73.19
2022-08-24T06:44:43.398Z,72.66
2022-08-24T06:47:12.774Z,71.95
2022-08-24T06:49:41.032Z,71.64
2022-08-24T06:52:10.272Z,71.33
2022-08-24T06:54:38.929Z,70.90
2022-08-24T06:57:07.629Z,70.30
2022-08-24T06:59:36.250Z,70.08
2022-08-24T07:02:04.179Z,69.79
2022-08-24T07:04:36.048Z,69.03
2022-08-24T07:07:04.122Z,68.89
2022-08-24T07:09:33.495Z,68.89
2022-08-24T07:12:01.602Z,68.93
2022-08-24T07:14:29.949Z,68.72
2022-08-24T07:16:57.977Z,68.58
2022-08-24T07:19:26.113Z,68.90
2022-08-24T07:21:58.987Z,68.22
2022-08-24T07:24:27.177Z,68.39
2022-08-24T07:26:55.236Z,68.34
2022-08-24T07:29:48.554Z,68.20
2022-08-24T07:32:12.447Z,68.09
2022-08-24T07:34:40.433Z,67.95
2022-08-24T07:37:09.695Z,67.59
2022-08-24T07:39:37.564Z,67.97
2022-08-24T07:42:13.383Z,67.10
2022-08-24T07:44:43.444Z,66.25
2022-08-24T07:47:36.662Z,65.46
2022-08-24T07:49:59.751Z,65.09
2022-08-24T07:52:29.365Z,64.71
2022-08-24T07:54:57.286Z,64.70
2022-08-24T07:57:25.468Z,64.38
2022-08-24T07:59:56.063Z,63.74
2022-08-24T08:02:24.053Z,63.18
2022-08-24T08:04:56.817Z,63.39
2022-08-24T08:07:24.904Z,62.48
2022-08-24T08:09:54.314Z,61.62
2022-08-24T08:12:22.305Z,61.14
2022-08-24T08:14:50.297Z,60.21
2022-08-24T08:17:18.261Z,59.92
2022-08-24T08:19:46.414Z,59.45
2022-08-24T08:22:31.943Z,57.88
2022-08-24T08:25:01.445Z,55.39
2022-08-24T08:27:29.432Z,53.84
2022-08-24T08:29:57.321Z,52.86
2022-08-24T08:32:25.469Z,52.44
2022-08-24T08:34:53.551Z,51.45
2022-08-24T08:37:21.633Z,51.82
2022-08-24T08:39:54.940Z,51.20
2022-08-24T08:42:40.530Z,48.97
2022-08-24T08:45:18.910Z,48.55
2022-08-24T08:48:21.676Z,46.44
2022-08-24T08:51:12.245Z,45.50
2022-08-24T08:54:15.833Z,44.71
2022-08-24T08:56:56.078Z,43.92
2022-08-24T08:59:46.209Z,42.56
2022-08-24T09:02:29.213Z,42.09
2022-08-24T09:05:47.376Z,41.59
2022-08-24T09:08:26.934Z,41.07
2022-08-24T09:11:01.441Z,40.52
2022-08-24T09:13:45.904Z,39.38
2022-08-24T09:16:43.093Z,39.73
2022-08-24T09:19:34.068Z,38.76
2022-08-24T09:22:12.096Z,38.45
2022-08-24T09:25:26.938Z,37.97
2022-08-24T09:28:14.679Z,37.70
2022-08-24T09:31:04.946Z,37.57
2022-08-24T09:33:43.961Z,36.85
2022-08-24T09:36:21.137Z,37.25
2022-08-24T09:39:00.794Z,37.02
2022-08-24T09:42:01.098Z,36.75
2022-08-24T09:45:02.211Z,36.69
2022-08-24T09:48:01.769Z,35.86
2022-08-24T09:50:59.349Z,35.08
2022-08-24T09:54:00.473Z,35.52
2022-08-24T09:56:45.775Z,35.35
2022-08-24T09:59:31.768Z,35.03
2022-08-24T10:02:22.709Z,34.11
2022-08-24T10:05:00.604Z,33.86
2022-08-24T10:07:38.066Z,33.84
2022-08-24T10:10:26.451Z,34.69
2022-08-24T10:13:04.447Z,35.10
2022-08-24T10:15:39.694Z,35.83
2022-08-24T10:18:22.757Z,36.62
2022-08-24T10:21:06.625Z,37.40
2022-08-24T10:23:51.732Z,37.40
2022-08-24T10:26:30.189Z,37.74
2022-08-24T10:29:31.997Z,37.05
2022-08-24T10:32:15.739Z,36.38
2022-08-24T10:35:03.268Z,36.06
2022-08-24T10:37:48.797Z,36.63
2022-08-24T10:40:31.892Z,35.70
2022-08-24T10:43:35.806Z,35.49
2022-08-24T10:46:38.366Z,35.43
2022-08-24T10:49:33.569Z,35.44
2022-08-24T10:52:32.628Z,36.12
2022-08-24T10:55:14.880Z,36.04
2022-08-24T10:57:56.433Z,35.87
2022-08-24T11:00:29.113Z,35.36
2022-08-24T11:03:10.946Z,35.69
2022-08-24T11:05:43.426Z,35.17
2022-08-24T11:08:19.487Z,35.00
2022-08-24T11:11:03.568Z,35.13
2022-08-24T11:13:31.992Z,34.87
2022-08-24T11:16:03.217Z,34.14
2022-08-24T11:18:49.593Z,34.35
2022-08-24T11:21:33.862Z,34.38
2022-08-24T11:24:04.593Z,34.18
2022-08-24T11:26:32.831Z,34.31
2022-08-24T11:29:02.284Z,33.52
2022-08-24T11:31:36.081Z,33.87
2022-08-24T11:34:08.119Z,33.57
2022-08-24T11:36:38.982Z,33.56
2022-08-24T11:39:20.396Z,33.16
2022-08-24T11:41:57.190Z,32.93
2022-08-24T11:44:39.158Z,32.87
2022-08-24T11:47:31.230Z,33.41
2022-08-24T11:50:06.464Z,33.20
2022-08-24T11:52:47.692Z,32.99
2022-08-24T11:55:24.291Z,32.72
2022-08-24T11:58:02.421Z,32.50
2022-08-24T12:00:44.229Z,32.75
2022-08-24T12:03:35.917Z,33.59
2022-08-24T12:06:11.317Z,33.25
2022-08-24T12:08:47.122Z,33.28
2022-08-24T12:11:23.709Z,32.94
2022-08-24T12:13:59.214Z,32.59
2022-08-24T12:16:35.502Z,33.26
2022-08-24T12:19:10.328Z,32.78
2022-08-24T12:21:40.933Z,32.17
2022-08-24T12:24:13.341Z,31.95
2022-08-24T12:26:45.216Z,32.05
2022-08-24T12:29:19.746Z,31.55
2022-08-24T12:31:51.608Z,31.54
2022-08-24T12:34:31.867Z,31.21
2022-08-24T12:37:05.026Z,31.34
2022-08-24T12:39:50.102Z,30.31
2022-08-24T12:42:23.502Z,29.74
2022-08-24T12:44:56.533Z,29.19
2022-08-24T12:47:30.144Z,29.66
2022-08-24T12:50:05.007Z,29.32
2022-08-24T12:53:13.353Z,29.84
2022-08-24T12:56:41.545Z,30.87
2022-08-24T12:59:18.802Z,32.11
2022-08-24T13:01:49.862Z,31.64
2022-08-24T13:04:34.374Z,31.39
2022-08-24T13:07:10.791Z,30.57
2022-08-24T13:09:41.036Z,30.51
2022-08-24T13:12:46.371Z,30.18
2022-08-24T13:15:43.824Z,30.30
2022-08-24T13:18:51.489Z,31.18
2022-08-24T13:21:54.479Z,32.16
2022-08-24T13:25:04.586Z,32.50
2022-08-24T13:28:11.028Z,33.42
2022-08-24T13:31:14.689Z,33.75
2022-08-24T13:33:47.801Z,34.86
2022-08-24T13:37:07.101Z,35.35
2022-08-24T13:39:59.784Z,35.03
2022-08-24T13:43:04.248Z,33.33
2022-08-24T13:45:37.548Z,32.02
2022-08-24T13:48:25.438Z,31.54
2022-08-24T13:51:26.654Z,30.18
2022-08-24T13:54:30.193Z,30.40
2022-08-24T13:57:16.950Z,29.37
2022-08-24T14:00:02.728Z,29.02
2022-08-24T14:02:43.535Z,28.59
2022-08-24T14:05:26.183Z,28.28
2022-08-24T14:08:08.179Z,28.33
2022-08-24T14:10:49.616Z,27.56
2022-08-24T14:13:36.325Z,26.65
2022-08-24T14:16:28.848Z,26.55
2022-08-24T14:19:08.925Z,26.50
2022-08-24T14:21:43.558Z,26.29
2022-08-24T14:24:26.902Z,26.56
2022-08-24T14:27:11.335Z,25.80
2022-08-24T14:29:46.709Z,25.69
2022-08-24T14:32:45.328Z,25.51
2022-08-24T14:35:37.100Z,25.24
2022-08-24T14:38:28.123Z,25.40
2022-08-24T14:41:10.372Z,25.03
2022-08-24T14:43:58.802Z,24.54
2022-08-24T14:46:36.038Z,25.07
2022-08-24T14:49:16.350Z,24.49
2022-08-24T14:51:57.968Z,24.72
2022-08-24T14:54:37.885Z,25.15
2022-08-24T14:57:23.779Z,24.96
2022-08-24T15:00:05.618Z,25.58
2022-08-24T15:03:11.673Z,25.52
2022-08-24T15:06:03.844Z,25.30
2022-08-24T15:08:43.059Z,25.24
2022-08-24T15:11:13.628Z,24.82
2022-08-24T15:13:48.919Z,25.14
2022-08-24T15:16:22.386Z,24.91
2022-08-24T15:19:00.310Z,24.59
2022-08-24T15:21:39.719Z,24.83
2022-08-24T15:24:16.773Z,24.20
2022-08-24T15:26:56.527Z,24.01
2022-08-24T15:29:30.452Z,23.68
2022-08-24T15:32:04.072Z,23.59
2022-08-24T15:34:45.669Z,24.02
2022-08-24T15:37:16.036Z,24.28
2022-08-24T15:39:44.295Z,24.54
2022-08-24T15:42:15.209Z,25.49
2022-08-24T15:44:47.158Z,26.02
2022-08-24T15:47:27.808Z,26.53
2022-08-24T15:49:59.412Z,26.51
2022-08-24T15:52:42.297Z,26.59
2022-08-24T15:55:27.896Z,27.24
2022-08-24T15:57:56.570Z,27.58
2022-08-24T16:00:54.967Z,27.57
2022-08-24T16:03:25.245Z,28.37
2022-08-24T16:05:56.051Z,28.73
2022-08-24T16:08:24.882Z,29.54
2022-08-24T16:10:56.557Z,30.54
2022-08-24T16:13:29.405Z,30.83
2022-08-24T16:16:03.294Z,30.95
2022-08-24T16:18:46.984Z,30.29
2022-08-24T16:21:17.418Z,29.99
2022-08-24T16:23:56.881Z,29.41
2022-08-24T16:26:27.838Z,29.82
2022-08-24T16:28:56.997Z,29.87
2022-08-24T16:31:52.072Z,29.88
2022-08-24T16:34:29.507Z,30.47
2022-08-24T16:36:58.571Z,31.08
2022-08-24T16:39:27.175Z,31.94
2022-08-24T16:41:58.785Z,32.93
2022-08-24T16:44:31.078Z,33.46
2022-08-24T16:47:00.388Z,34.34
2022-08-24T16:49:28.397Z,34.69
2022-08-24T16:51:56.537Z,35.59
2022-08-24T16:54:26.436Z,36.40
2022-08-24T16:56:54.758Z,36.67
2022-08-24T16:59:28.556Z,37.17
2022-08-24T17:01:56.533Z,37.48
2022-08-24T17:04:26.216Z,38.15
2022-08-24T17:06:56.834Z,38.57
2022-08-24T17:09:24.948Z,39.05
2022-08-24T17:11:52.802Z,39.58
2022-08-24T17:14:20.953Z,39.69
2022-08-24T17:16:49.321Z,40.51
2022-08-24T17:19:20.692Z,40.58
2022-08-24T17:21:50.355Z,40.86
2022-08-24T17:24:22.006Z,41.69
2022-08-24T17:26:52.325Z,41.93
2022-08-24T17:29:21.107Z,41.87
2022-08-24T17:31:51.100Z,42.21
2022-08-24T17:34:21.062Z,42.87
2022-08-24T17:36:52.626Z,43.23
2022-08-24T17:39:24.044Z,43.66
2022-08-24T17:41:52.123Z,43.84
2022-08-24T17:44:25.010Z,43.82
2022-08-24T17:46:55.223Z,44.09
2022-08-24T17:49:23.497Z,44.20
2022-08-24T17:51:53.260Z,44.72
2022-08-24T17:54:21.938Z,45.21
2022-08-24T17:56:51.084Z,45.31
2022-08-24T17:59:24.786Z,46.29
2022-08-24T18:01:55.120Z,47.22
2022-08-24T18:04:27.860Z,47.00
2022-08-24T18:06:59.137Z,47.25
2022-08-24T18:09:30.889Z,47.70
2022-08-24T18:12:04.358Z,47.99
2022-08-24T18:14:34.679Z,48.31
2022-08-24T18:17:05.368Z,48.68
2022-08-24T18:19:34.511Z,48.92
2022-08-24T18:22:04.635Z,49.31
2022-08-24T18:24:33.520Z,49.66
2022-08-24T18:27:02.873Z,50.41
2022-08-24T18:29:40.442Z,50.88
2022-08-24T18:32:11.689Z,50.86
2022-08-24T18:34:40.132Z,51.26
2022-08-24T18:37:09.629Z,51.85
2022-08-24T18:39:38.026Z,51.93
2022-08-24T18:42:12.768Z,52.13
2022-08-24T18:44:41.038Z,52.53
2022-08-24T18:47:09.587Z,52.95
2022-08-24T18:49:37.752Z,53.06
2022-08-24T18:52:10.479Z,53.17
2022-08-24T18:54:42.133Z,53.23
2022-08-24T18:57:10.169Z,53.49
2022-08-24T18:59:40.894Z,53.87
2022-08-24T19:02:30.327Z,53.92
2022-08-24T19:04:59.778Z,53.92
2022-08-24T19:07:31.741Z,54.17
2022-08-24T19:10:00.068Z,54.17
2022-08-24T19:12:31.550Z,54.74
2022-08-24T19:15:01.707Z,54.90
2022-08-24T19:17:29.709Z,54.99
2022-08-24T19:19:58.098Z,55.01
2022-08-24T19:22:27.189Z,55.24
2022-08-24T19:24:56.903Z,55.47
2022-08-24T19:27:25.501Z,55.64
2022-08-24T19:29:56.130Z,55.67
2022-08-24T19:32:27.217Z,55.79
2022-08-24T19:34:55.821Z,56.02
2022-08-24T19:37:24.378Z,56.17
2022-08-24T19:39:53.334Z,56.42
2022-08-24T19:42:23.086Z,56.69
2022-08-24T19:45:11.733Z,56.57
2022-08-24T19:47:43.254Z,56.61
2022-08-24T19:50:12.270Z,56.86
2022-08-24T19:52:40.737Z,56.88
2022-08-24T19:55:10.325Z,57.00
2022-08-24T19:57:44.263Z,57.27
2022-08-24T20:00:25.750Z,57.72
2022-08-24T20:02:55.731Z,57.65
2022-08-24T20:05:25.544Z,57.81
2022-08-24T20:07:53.513Z,57.79
2022-08-24T20:10:24.224Z,58.05
2022-08-24T20:12:54.002Z,58.31
2022-08-24T20:15:23.440Z,58.33
2022-08-24T20:17:52.289Z,58.30
2022-08-24T20:20:22.200Z,58.65
2022-08-24T20:22:50.948Z,58.72
2022-08-24T20:25:19.185Z,58.57
2022-08-24T20:27:48.242Z,58.84
2022-08-24T20:30:18.518Z,59.12
2022-08-24T20:32:47.995Z,59.28
2022-08-24T20:35:15.920Z,59.45
2022-08-24T20:37:43.980Z,59.22
2022-08-24T20:40:15.737Z,59.90
2022-08-24T20:42:43.880Z,60.04
2022-08-24T20:45:14.121Z,60.72
2022-08-24T20:47:48.893Z,61.23
2022-08-24T20:50:18.579Z,61.11
2022-08-24T20:52:46.518Z,61.43
2022-08-24T20:55:15.115Z,61.53
2022-08-24T20:57:48.277Z,61.83
2022-08-24T21:00:18.056Z,61.83
2022-08-24T21:02:47.946Z,62.23
2022-08-24T21:05:16.012Z,62.13
2022-08-24T21:07:49.597Z,62.25
2022-08-24T21:10:18.866Z,62.37
2022-08-24T21:12:46.748Z,62.53
2022-08-24T21:15:14.768Z,62.73
2022-08-24T21:17:44.052Z,62.63
2022-08-24T21:20:15.088Z,62.58
2022-08-24T21:22:45.284Z,62.54
2022-08-24T21:25:15.615Z,62.72
2022-08-24T21:27:46.345Z,62.97
2022-08-24T21:30:17.093Z,63.30
2022-08-24T21:33:02.937Z,63.00
2022-08-24T21:35:32.544Z,63.45
2022-08-24T21:38:01.174Z,63.54
2022-08-24T21:40:29.730Z,64.01
2022-08-24T21:42:58.339Z,64.11
2022-08-24T21:45:26.565Z,64.40
2022-08-24T21:47:55.322Z,64.46
2022-08-24T21:50:25.827Z,64.71
2022-08-24T21:52:55.193Z,64.78
2022-08-24T21:55:23.293Z,64.92
2022-08-24T21:57:51.491Z,65.27
2022-08-24T22:00:21.227Z,65.40
2022-08-24T22:02:49.966Z,65.54
2022-08-24T22:05:18.927Z,65.92
2022-08-24T22:07:47.609Z,66.37
2022-08-24T22:10:19.406Z,66.45
2022-08-24T22:12:47.561Z,66.61
2022-08-24T22:15:16.942Z,67.32
2022-08-24T22:17:52.925Z,67.22
2022-08-24T22:20:23.157Z,67.65
2022-08-24T22:22:51.897Z,67.93
2022-08-24T22:25:21.768Z,68.36
2022-08-24T22:27:49.825Z,68.32
2022-08-24T22:30:19.862Z,68.83
2022-08-24T22:32:47.985Z,69.03
2022-08-24T22:35:16.110Z,69.24
2022-08-24T22:37:44.061Z,69.81
2022-08-24T22:40:13.552Z,69.85
2022-08-24T22:42:43.437Z,70.09
2022-08-24T22:45:12.106Z,70.28
2022-08-24T22:47:40.153Z,70.78
2022-08-24T22:50:09.297Z,70.82
2022-08-24T22:52:37.233Z,71.03
2022-08-24T22:55:05.871Z,71.10
2022-08-24T22:57:34.579Z,71.18
2022-08-24T23:00:08.563Z,71.90
2022-08-24T23:02:37.514Z,71.51
2022-08-24T23:05:06.395Z,71.65
2022-08-24T23:07:35.469Z,71.86
2022-08-24T23:10:03.693Z,71.91
2022-08-24T23:12:33.128Z,72.24
2022-08-24T23:15:01.497Z,72.31
2022-08-24T23:17:30.836Z,72.74
2022-08-24T23:20:02.048Z,72.77
2022-08-24T23:22:32.598Z,73.05
2022-08-24T23:25:01.425Z,73.02
2022-08-24T23:27:37.774Z,73.09
2022-08-24T23:30:09.616Z,73.36
2022-08-24T23:32:39.241Z,73.49
2022-08-24T23:35:08.007Z,73.60
2022-08-24T23:37:35.933Z,73.63
2022-08-24T23:40:05.875Z,73.64
2022-08-24T23:42:33.952Z,74.10
2022-08-24T23:45:02.347Z,74.41
2022-08-24T23:47:30.254Z,74.59
2022-08-24T23:50:06.744Z,74.67
2022-08-24T23:52:40.311Z,74.70
2022-08-24T23:55:20.558Z,74.82
2022-08-24T23:57:50.026Z,74.97
